Time;durP1;ratioP1;P1;durP2;ratioP2;P2;SDS_P1;SDS_P2;PMS_P1;PMS_P2;Temp;Humidity;BMP_temperature;BMP_pressure;BME280_temperature;BME280_humidity;BME280_pressure;Samples;Min_cycle;Max_cycle;Signal;HPM_P1;HPM_P2
2022/10/15 00:01:21;;;;;;;37.47;26.30;;;11.80;99.90;;;;;;5112437;28;20204;-74
2022/10/15 00:03:48;;;;;;;40.40;25.37;;;11.80;99.90;;;;;;5111549;28;20257;-75
2022/10/15 00:06:16;;;;;;;37.50;27.23;;;11.70;99.90;;;;;;5112667;28;20211;-74
2022/10/15 00:08:44;;;;;;;37.90;27.23;;;11.80;99.90;;;;;;5113265;28;20644;-75
2022/10/15 00:11:12;;;;;;;39.40;27.37;;;11.70;99.90;;;;;;5113276;28;20211;-76
2022/10/15 00:13:41;;;;;;;38.10;26.37;;;11.70;99.90;;;;;;5111176;28;20208;-75
2022/10/15 00:16:10;;;;;;;37.80;26.90;;;11.70;99.90;;;;;;5107320;28;20208;-75
2022/10/15 00:18:37;;;;;;;38.13;27.50;;;11.70;99.90;;;;;;5111826;28;20552;-75
2022/10/15 00:21:07;;;;;;;38.90;27.90;;;11.60;99.90;;;;;;5109933;28;20295;-75
2022/10/15 00:23:34;;;;;;;44.67;29.33;;;11.60;99.90;;;;;;5111155;28;20761;-75
2022/10/15 00:26:02;;;;;;;41.73;27.80;;;11.60;99.90;;;;;;5110370;28;20731;-75
2022/10/15 00:28:29;;;;;;;39.07;27.43;;;11.60;99.90;;;;;;5111462;28;20203;-75
2022/10/15 00:31:02;;;;;;;39.70;28.03;;;11.60;99.90;;;;;;5111105;28;21020;-74
2022/10/15 00:33:29;;;;;;;41.27;27.60;;;11.60;99.90;;;;;;5107956;28;20690;-74
2022/10/15 00:36:01;;;;;;;43.67;27.93;;;11.60;99.90;;;;;;5112634;28;20207;-75
2022/10/15 00:38:28;;;;;;;42.47;29.47;;;11.60;99.90;;;;;;5110256;28;20252;-75
2022/10/15 00:40:55;;;;;;;44.33;27.83;;;11.60;99.90;;;;;;5107719;28;20205;-74
2022/10/15 00:43:38;;;;;;;44.60;27.97;;;11.60;99.90;;;;;;5111628;28;20223;-74
2022/10/15 00:46:15;;;;;;;40.77;28.17;;;11.50;99.90;;;;;;5102738;28;20426;-74
2022/10/15 00:48:42;;;;;;;41.07;28.20;;;11.60;99.90;;;;;;5114088;27;20211;-74
2022/10/15 00:51:09;;;;;;;38.53;28.10;;;11.50;99.90;;;;;;5112770;28;20672;-74
2022/10/15 00:53:36;;;;;;;40.37;28.30;;;11.50;99.90;;;;;;5104374;28;20208;-73
2022/10/15 00:56:03;;;;;;;36.53;26.87;;;11.50;99.90;;;;;;5112808;28;20211;-74
2022/10/15 00:58:32;;;;;;;41.70;28.37;;;11.50;99.90;;;;;;5091555;28;20297;-73
2022/10/15 01:00:59;;;;;;;38.87;27.87;;;11.50;99.90;;;;;;5110715;28;20200;-73
2022/10/15 01:03:28;;;;;;;41.37;28.87;;;11.50;99.90;;;;;;5112808;28;20200;-73
2022/10/15 01:05:55;;;;;;;40.97;28.13;;;11.50;99.90;;;;;;5113109;28;20214;-73
2022/10/15 01:08:22;;;;;;;37.60;28.03;;;11.40;99.90;;;;;;5111153;28;20223;-73
2022/10/15 01:10:56;;;;;;;46.33;30.43;;;11.40;99.90;;;;;;5108586;28;20208;-74
2022/10/15 01:13:35;;;;;;;40.90;28.00;;;11.40;99.90;;;;;;5107353;28;20210;-74
2022/10/15 01:16:08;;;;;;;39.53;28.67;;;11.30;99.90;;;;;;5113326;28;20536;-74
2022/10/15 01:18:41;;;;;;;42.87;27.73;;;11.40;99.90;;;;;;5113292;28;20192;-74
2022/10/15 01:21:16;;;;;;;39.20;28.33;;;11.30;99.90;;;;;;5114082;28;20215;-74
2022/10/15 01:24:22;;;;;;;40.60;28.60;;;11.30;99.90;;;;;;5112635;28;20230;-74
2022/10/15 01:27:22;;;;;;;38.10;27.43;;;11.20;99.90;;;;;;5111215;28;20581;-74
2022/10/15 01:30:06;;;;;;;43.47;27.77;;;11.20;99.90;;;;;;5107247;28;20212;-74
2022/10/15 01:32:38;;;;;;;46.27;29.33;;;11.10;99.90;;;;;;5111062;28;20207;-75
2022/10/15 01:35:17;;;;;;;37.97;28.00;;;11.10;99.90;;;;;;5112621;28;20208;-75
2022/10/15 01:37:52;;;;;;;42.47;29.67;;;11.10;99.90;;;;;;5111504;28;20303;-75
2022/10/15 01:40:25;;;;;;;41.47;28.57;;;11.10;99.90;;;;;;5111134;28;20208;-75
2022/10/15 01:42:56;;;;;;;42.97;28.43;;;11.10;99.90;;;;;;5110948;28;20207;-74
2022/10/15 01:45:30;;;;;;;40.20;27.40;;;11.10;99.90;;;;;;5109808;28;20200;-75
2022/10/15 01:48:02;;;;;;;40.30;28.60;;;11.10;99.90;;;;;;5111018;28;20219;-74
2022/10/15 01:50:31;;;;;;;43.30;28.50;;;11.10;99.90;;;;;;5112060;28;20699;-74
2022/10/15 01:53:00;;;;;;;40.63;28.33;;;11.00;99.90;;;;;;5110962;27;20215;-73
2022/10/15 01:55:27;;;;;;;44.27;28.27;;;11.00;99.90;;;;;;5111211;28;20208;-73
2022/10/15 01:57:57;;;;;;;39.60;28.83;;;11.00;99.90;;;;;;5110620;28;20642;-74
2022/10/15 02:00:24;;;;;;;40.10;28.27;;;11.00;99.90;;;;;;5111488;28;20247;-74
2022/10/15 02:02:51;;;;;;;43.27;28.17;;;11.00;99.90;;;;;;5109640;28;20219;-74
2022/10/15 02:05:25;;;;;;;46.00;30.00;;;11.00;99.90;;;;;;5111129;28;20547;-75
2022/10/15 02:08:00;;;;;;;38.83;27.77;;;11.00;99.90;;;;;;5112593;28;20228;-74
2022/10/15 02:10:31;;;;;;;43.37;28.53;;;11.00;99.90;;;;;;5111011;28;20203;-75
2022/10/15 02:13:08;;;;;;;46.40;28.97;;;11.00;99.90;;;;;;5107454;28;20207;-74
2022/10/15 02:15:42;;;;;;;39.10;27.67;;;11.00;99.90;;;;;;5111671;28;20213;-75
2022/10/15 02:18:15;;;;;;;40.33;27.57;;;11.00;99.90;;;;;;5104166;28;20208;-75
2022/10/15 02:20:53;;;;;;;42.93;27.33;;;10.90;99.90;;;;;;5109483;28;20196;-74
2022/10/15 02:23:23;;;;;;;40.93;29.03;;;11.00;99.90;;;;;;5111597;28;20238;-73
2022/10/15 02:25:53;;;;;;;41.93;28.10;;;10.90;99.90;;;;;;5111106;28;20212;-75
2022/10/15 02:28:21;;;;;;;38.63;26.70;;;10.90;99.90;;;;;;5111098;28;20822;-74
2022/10/15 02:30:51;;;;;;;38.77;27.40;;;10.90;99.90;;;;;;5110684;28;20208;-74
2022/10/15 02:33:19;;;;;;;42.93;27.80;;;10.90;99.90;;;;;;5111652;28;20611;-74
2022/10/15 02:35:49;;;;;;;40.97;28.37;;;10.80;99.90;;;;;;5108171;28;20204;-74
2022/10/15 02:38:20;;;;;;;41.50;26.77;;;10.80;99.90;;;;;;5105534;28;20212;-75
2022/10/15 02:40:48;;;;;;;44.17;27.97;;;10.80;99.90;;;;;;5110248;28;20210;-74
2022/10/15 02:43:18;;;;;;;39.17;28.17;;;10.80;99.90;;;;;;5111800;28;20547;-73
2022/10/15 02:45:45;;;;;;;41.07;27.33;;;10.80;99.90;;;;;;5113260;28;20211;-75
2022/10/15 02:48:12;;;;;;;42.37;28.03;;;10.70;99.90;;;;;;5111779;28;20233;-74
2022/10/15 02:50:39;;;;;;;43.10;27.80;;;10.70;99.90;;;;;;5109989;28;20199;-75
2022/10/15 02:53:07;;;;;;;41.50;29.03;;;10.70;99.90;;;;;;5112371;28;20207;-75
2022/10/15 02:55:34;;;;;;;41.60;28.10;;;10.70;99.90;;;;;;5113941;28;20215;-74
2022/10/15 02:58:01;;;;;;;40.93;27.63;;;10.70;99.90;;;;;;5112811;28;20546;-75
2022/10/15 03:00:28;;;;;;;41.43;28.53;;;10.70;99.90;;;;;;5112500;28;20200;-75
2022/10/15 03:02:55;;;;;;;43.70;28.77;;;10.70;99.90;;;;;;5120732;27;20313;-74
2022/10/15 03:05:21;;;;;;;43.50;27.80;;;10.80;99.90;;;;;;5113611;28;20672;-74
2022/10/15 03:07:48;;;;;;;46.33;29.17;;;10.70;99.90;;;;;;5111695;28;20798;-74
2022/10/15 03:10:16;;;;;;;39.97;26.13;;;10.70;99.90;;;;;;5112792;28;20231;-74
2022/10/15 03:12:43;;;;;;;41.40;28.17;;;10.70;99.90;;;;;;5113988;27;20219;-74
2022/10/15 03:15:11;;;;;;;43.10;28.27;;;10.80;99.90;;;;;;5111961;28;20211;-73
2022/10/15 03:17:37;;;;;;;40.37;27.90;;;10.80;99.90;;;;;;5111756;28;20200;-73
2022/10/15 03:20:05;;;;;;;41.70;28.33;;;10.80;99.90;;;;;;5111494;28;20215;-75
2022/10/15 03:22:31;;;;;;;42.00;27.53;;;10.80;99.90;;;;;;5111883;28;20232;-74
2022/10/15 03:24:58;;;;;;;37.83;26.57;;;10.90;99.90;;;;;;5110556;28;20192;-74
2022/10/15 03:27:27;;;;;;;38.60;26.97;;;10.80;99.90;;;;;;5112449;28;20242;-74
2022/10/15 03:29:53;;;;;;;39.50;26.73;;;10.80;99.90;;;;;;5115838;28;20215;-75
2022/10/15 03:32:20;;;;;;;42.03;27.77;;;10.90;99.90;;;;;;5115702;28;20204;-75
2022/10/15 03:34:47;;;;;;;40.53;26.47;;;10.90;99.90;;;;;;5116907;28;20195;-76
2022/10/15 03:37:14;;;;;;;40.33;27.23;;;10.80;99.90;;;;;;5115002;28;20231;-76
2022/10/15 03:39:41;;;;;;;37.97;26.63;;;10.80;99.90;;;;;;5113747;28;20203;-76
2022/10/15 03:42:07;;;;;;;44.20;27.20;;;10.90;99.90;;;;;;5115236;28;20203;-75
2022/10/15 03:44:43;;;;;;;40.90;27.23;;;10.80;99.90;;;;;;5115870;28;20208;-76
2022/10/15 03:47:10;;;;;;;36.03;26.90;;;10.80;99.90;;;;;;5117643;28;20211;-77
2022/10/15 03:49:37;;;;;;;38.77;27.70;;;10.80;99.90;;;;;;5115240;28;20612;-75
2022/10/15 03:52:04;;;;;;;40.57;26.97;;;10.80;99.90;;;;;;5109663;28;20211;-75
2022/10/15 03:54:31;;;;;;;36.20;25.47;;;10.70;99.90;;;;;;5116657;28;20212;-74
2022/10/15 03:57:00;;;;;;;42.40;26.17;;;10.70;99.90;;;;;;5113975;28;20200;-74
2022/10/15 03:59:27;;;;;;;38.97;25.40;;;10.70;99.90;;;;;;5108589;28;20307;-75
2022/10/15 04:01:56;;;;;;;34.80;25.53;;;10.60;99.90;;;;;;5109628;28;20204;-75
2022/10/15 04:04:23;;;;;;;34.97;25.97;;;10.60;99.90;;;;;;5116986;28;20223;-75
2022/10/15 04:06:50;;;;;;;34.37;23.83;;;10.50;99.90;;;;;;5115535;28;20200;-75
2022/10/15 04:09:17;;;;;;;36.77;25.60;;;10.50;99.90;;;;;;5118355;28;20227;-75
2022/10/15 04:11:44;;;;;;;35.60;24.77;;;10.60;99.90;;;;;;5117882;27;20212;-74
2022/10/15 04:14:10;;;;;;;33.10;25.50;;;10.40;99.90;;;;;;5111538;28;20216;-75
2022/10/15 04:16:38;;;;;;;36.17;26.10;;;10.40;99.90;;;;;;5116828;27;20217;-75
2022/10/15 04:19:06;;;;;;;34.77;25.13;;;10.40;99.90;;;;;;5117244;28;20224;-75
2022/10/15 04:21:33;;;;;;;34.47;25.23;;;10.40;99.90;;;;;;5118658;28;20583;-74
2022/10/15 04:24:00;;;;;;;33.93;24.63;;;10.40;99.90;;;;;;5131966;27;20227;-75
2022/10/15 04:26:26;;;;;;;32.63;24.40;;;10.30;99.90;;;;;;5120687;28;20594;-73
2022/10/15 04:28:53;;;;;;;35.63;24.83;;;10.30;99.90;;;;;;5114943;28;20224;-74
2022/10/15 04:31:20;;;;;;;36.80;25.27;;;10.30;99.90;;;;;;5118745;28;20215;-74
2022/10/15 04:33:48;;;;;;;35.63;25.07;;;10.30;99.90;;;;;;5115315;28;20575;-74
2022/10/15 04:36:17;;;;;;;34.63;24.07;;;10.30;99.90;;;;;;5113526;28;20608;-74
2022/10/15 04:38:43;;;;;;;35.17;24.50;;;10.30;99.90;;;;;;5106050;28;20204;-74
2022/10/15 04:41:11;;;;;;;33.13;23.87;;;10.30;99.90;;;;;;5112769;28;20212;-74
2022/10/15 04:43:40;;;;;;;37.63;23.20;;;10.30;99.90;;;;;;5110860;28;20590;-74
2022/10/15 04:46:08;;;;;;;32.77;24.37;;;10.20;99.90;;;;;;5116811;28;20214;-73
2022/10/15 04:48:37;;;;;;;35.43;25.03;;;10.20;99.90;;;;;;5115551;28;20625;-74
2022/10/15 04:51:05;;;;;;;33.37;24.57;;;10.20;99.90;;;;;;5115897;28;20220;-74
2022/10/15 04:53:33;;;;;;;32.27;23.93;;;10.20;99.90;;;;;;5112868;28;20208;-74
2022/10/15 04:56:02;;;;;;;35.47;24.40;;;10.20;99.90;;;;;;5112955;28;20212;-74
2022/10/15 04:58:30;;;;;;;37.87;23.83;;;10.20;99.90;;;;;;5104149;28;20200;-74
2022/10/15 05:01:01;;;;;;;34.60;25.27;;;10.30;99.90;;;;;;5105554;28;20199;-74
2022/10/15 05:03:27;;;;;;;31.33;24.10;;;10.20;99.90;;;;;;5115881;28;20234;-75
2022/10/15 05:05:59;;;;;;;35.10;24.57;;;10.30;99.90;;;;;;5115398;28;20279;-74
2022/10/15 05:08:26;;;;;;;35.43;24.10;;;10.40;99.90;;;;;;5113230;28;20215;-70
2022/10/15 05:10:54;;;;;;;35.73;24.53;;;10.40;99.90;;;;;;5109126;28;20211;-71
2022/10/15 05:13:21;;;;;;;35.37;24.60;;;10.40;99.90;;;;;;5111227;28;20214;-71
2022/10/15 05:15:47;;;;;;;36.77;25.33;;;10.40;99.90;;;;;;5112345;28;20664;-70
2022/10/15 05:18:14;;;;;;;31.50;23.97;;;10.40;99.90;;;;;;5108005;28;20272;-71
2022/10/15 05:20:41;;;;;;;33.70;24.70;;;10.50;99.90;;;;;;5109032;28;20682;-67
2022/10/15 05:23:08;;;;;;;36.73;25.07;;;10.50;99.90;;;;;;5099864;28;20310;-70
2022/10/15 05:25:34;;;;;;;33.50;25.40;;;10.60;99.90;;;;;;5112947;28;21050;-68
2022/10/15 05:28:03;;;;;;;33.87;24.70;;;10.60;99.90;;;;;;5101482;28;20228;-69
2022/10/15 05:30:29;;;;;;;31.93;24.33;;;10.60;99.90;;;;;;5112452;28;20208;-70
2022/10/15 05:32:56;;;;;;;34.27;24.90;;;10.70;99.90;;;;;;5111480;28;20203;-70
2022/10/15 05:35:23;;;;;;;33.90;24.23;;;10.70;99.90;;;;;;5110819;28;20215;-69
2022/10/15 05:37:50;;;;;;;32.57;24.17;;;10.80;99.90;;;;;;5111218;28;20648;-70
2022/10/15 05:40:17;;;;;;;29.97;23.03;;;10.90;99.90;;;;;;5111851;28;20207;-71
2022/10/15 05:42:43;;;;;;;35.27;23.73;;;11.00;99.90;;;;;;5110046;28;20569;-70
2022/10/15 05:45:12;;;;;;;33.17;23.00;;;11.00;99.90;;;;;;5110086;28;20200;-71
2022/10/15 05:47:39;;;;;;;32.63;23.90;;;11.10;99.90;;;;;;5108797;28;20249;-70
2022/10/15 05:50:06;;;;;;;30.67;23.33;;;11.10;99.90;;;;;;5112689;28;20726;-71
2022/10/15 05:52:33;;;;;;;34.77;23.83;;;11.20;99.90;;;;;;5107633;28;20212;-67
2022/10/15 05:54:59;;;;;;;30.73;22.83;;;11.20;99.90;;;;;;5110497;28;20212;-69
2022/10/15 05:57:26;;;;;;;32.40;23.37;;;11.30;99.90;;;;;;5108768;28;20205;-70
2022/10/15 05:59:53;;;;;;;33.03;22.87;;;11.40;99.90;;;;;;5109135;28;20232;-71
2022/10/15 06:02:21;;;;;;;34.30;23.80;;;11.50;99.90;;;;;;5112072;28;20211;-71
2022/10/15 06:04:48;;;;;;;31.67;22.90;;;11.50;99.90;;;;;;5111615;28;20219;-69
2022/10/15 06:07:15;;;;;;;29.83;23.20;;;11.60;99.90;;;;;;5111229;28;20649;-70
2022/10/15 06:09:42;;;;;;;34.07;22.97;;;11.70;99.90;;;;;;5107982;28;20231;-70
2022/10/15 06:12:08;;;;;;;31.90;21.93;;;11.80;99.90;;;;;;5105518;27;20218;-68
2022/10/15 06:14:35;;;;;;;30.00;22.60;;;11.90;99.90;;;;;;5108332;28;20208;-73
2022/10/15 06:17:02;;;;;;;31.23;22.03;;;12.10;99.90;;;;;;5111143;28;20195;-71
2022/10/15 06:19:30;;;;;;;32.17;22.43;;;12.30;99.90;;;;;;5111361;28;20196;-73
2022/10/15 06:21:57;;;;;;;33.53;23.40;;;12.30;99.90;;;;;;5112872;28;20605;-73
2022/10/15 06:24:24;;;;;;;29.00;22.10;;;12.40;99.90;;;;;;5110760;28;20200;-74
2022/10/15 06:26:51;;;;;;;31.07;22.30;;;12.50;99.90;;;;;;5111577;28;20602;-73
2022/10/15 06:29:17;;;;;;;30.07;23.53;;;12.60;99.90;;;;;;5110127;28;20617;-72
2022/10/15 06:31:44;;;;;;;28.97;21.33;;;12.80;99.90;;;;;;5111325;28;20216;-73
2022/10/15 06:34:11;;;;;;;27.37;20.80;;;12.80;99.90;;;;;;5109516;28;20547;-72
2022/10/15 06:36:39;;;;;;;30.30;21.30;;;13.00;99.90;;;;;;5107696;28;20207;-72
2022/10/15 06:39:06;;;;;;;30.20;21.40;;;13.20;99.90;;;;;;5111731;28;20212;-71
2022/10/15 06:41:33;;;;;;;28.60;21.40;;;13.30;99.90;;;;;;5106833;28;20215;-71
2022/10/15 06:43:59;;;;;;;27.73;21.33;;;13.30;99.90;;;;;;5090938;28;20207;-73
2022/10/15 06:46:26;;;;;;;29.97;20.80;;;13.40;99.90;;;;;;5107901;28;20200;-73
2022/10/15 06:48:54;;;;;;;28.00;21.90;;;13.40;99.90;;;;;;5103827;28;20212;-72
2022/10/15 06:51:21;;;;;;;28.50;20.83;;;13.50;99.90;;;;;;5107183;28;20204;-71
2022/10/15 06:53:49;;;;;;;26.53;21.07;;;13.60;99.90;;;;;;5109240;28;20219;-74
2022/10/15 06:56:16;;;;;;;29.07;21.33;;;13.80;99.90;;;;;;5111557;28;20205;-73
2022/10/15 06:58:43;;;;;;;29.37;22.70;;;13.90;99.90;;;;;;5107288;28;20206;-73
2022/10/15 07:01:10;;;;;;;29.23;21.60;;;14.00;99.90;;;;;;5108290;28;20212;-73
2022/10/15 07:03:37;;;;;;;29.03;20.67;;;14.00;99.90;;;;;;5108904;28;20195;-74
2022/10/15 07:06:06;;;;;;;28.60;21.23;;;14.10;99.90;;;;;;5110213;28;20748;-73
2022/10/15 07:08:33;;;;;;;29.00;21.80;;;14.10;99.90;;;;;;5110793;28;20215;-74
2022/10/15 07:11:03;;;;;;;28.83;21.93;;;14.20;99.90;;;;;;5108168;28;20716;-73
2022/10/15 07:13:30;;;;;;;25.07;20.23;;;14.30;99.90;;;;;;5110016;28;20204;-74
2022/10/15 07:15:57;;;;;;;28.60;21.73;;;14.40;99.90;;;;;;5109660;28;20211;-75
2022/10/15 07:18:24;;;;;;;25.90;19.70;;;14.50;99.90;;;;;;5109943;28;20700;-73
2022/10/15 07:20:51;;;;;;;23.90;19.43;;;14.70;99.90;;;;;;5109058;28;20332;-71
2022/10/15 07:23:17;;;;;;;24.73;18.47;;;14.90;99.90;;;;;;5109215;28;20226;-72
2022/10/15 07:25:44;;;;;;;22.73;18.10;;;15.00;99.90;;;;;;5107772;28;20668;-72
2022/10/15 07:28:12;;;;;;;26.23;18.60;;;15.10;99.90;;;;;;5109500;28;20204;-72
2022/10/15 07:30:39;;;;;;;24.93;18.93;;;15.20;99.90;;;;;;5110339;28;20226;-71
2022/10/15 07:33:06;;;;;;;27.07;18.83;;;15.30;99.90;;;;;;5106788;28;20218;-71
2022/10/15 07:35:32;;;;;;;21.57;17.17;;;15.50;99.90;;;;;;5110473;28;20215;-71
2022/10/15 07:38:01;;;;;;;21.50;18.13;;;15.80;99.90;;;;;;5110179;28;20247;-71
2022/10/15 07:40:27;;;;;;;23.33;16.97;;;16.00;99.90;;;;;;5102551;28;20208;-71
2022/10/15 07:42:55;;;;;;;22.07;16.83;;;16.20;99.90;;;;;;5108788;28;20203;-72
2022/10/15 07:45:24;;;;;;;21.93;17.57;;;16.10;99.90;;;;;;5108080;28;20500;-71
2022/10/15 07:47:51;;;;;;;22.20;17.80;;;16.00;99.90;;;;;;5109045;28;20569;-72
2022/10/15 07:50:18;;;;;;;23.63;17.42;;;15.80;99.90;;;;;;5109652;28;20601;-72
2022/10/15 07:52:46;;;;;;;24.73;18.67;;;15.70;99.90;;;;;;5105272;28;20568;-73
2022/10/15 07:55:12;;;;;;;25.47;18.63;;;15.50;99.90;;;;;;5109226;28;20211;-73
2022/10/15 07:57:40;;;;;;;21.23;17.50;;;15.40;99.90;;;;;;5105916;28;20207;-71
2022/10/15 08:00:08;;;;;;;23.63;18.90;;;15.30;99.90;;;;;;5100356;28;20204;-71
2022/10/15 08:02:36;;;;;;;21.90;17.77;;;15.30;99.90;;;;;;5108568;28;20572;-73
2022/10/15 08:05:04;;;;;;;22.33;17.37;;;15.10;99.90;;;;;;5110767;28;20219;-72
2022/10/15 08:07:31;;;;;;;20.87;17.27;;;15.10;99.90;;;;;;5110755;28;20720;-72
2022/10/15 08:09:57;;;;;;;22.60;17.93;;;15.20;99.90;;;;;;5106659;28;20217;-71
2022/10/15 08:12:24;;;;;;;23.42;18.00;;;15.30;99.90;;;;;;5110762;28;20268;-73
2022/10/15 08:14:51;;;;;;;24.97;18.10;;;15.60;99.90;;;;;;5109700;28;20208;-70
2022/10/15 08:17:18;;;;;;;23.07;18.57;;;15.80;99.90;;;;;;5107592;28;20207;-71
2022/10/15 08:19:46;;;;;;;24.67;18.83;;;16.00;99.90;;;;;;5112627;28;20200;-71
2022/10/15 08:22:12;;;;;;;22.23;17.93;;;16.30;99.90;;;;;;5113858;28;20224;-69
2022/10/15 08:24:39;;;;;;;24.17;19.02;;;16.60;99.90;;;;;;5108795;28;20204;-72
2022/10/15 08:27:06;;;;;;;27.92;19.85;;;16.90;99.90;;;;;;5111887;28;20248;-72
2022/10/15 08:29:33;;;;;;;27.10;20.48;;;17.10;99.90;;;;;;5113261;28;20711;-71
2022/10/15 08:31:59;;;;;;;24.98;19.08;;;17.30;99.90;;;;;;5110941;28;20623;-72
2022/10/15 08:34:26;;;;;;;22.58;18.48;;;17.60;99.90;;;;;;5110415;28;20228;-72
2022/10/15 08:36:54;;;;;;;24.15;19.40;;;17.90;99.90;;;;;;5112614;28;20617;-72
2022/10/15 08:39:21;;;;;;;22.77;18.65;;;18.20;99.90;;;;;;5113774;28;20203;-71
2022/10/15 08:41:52;;;;;;;23.80;19.42;;;18.50;99.90;;;;;;5108654;28;20648;-72
2022/10/15 08:44:23;;;;;;;20.65;18.13;;;18.70;99.90;;;;;;5112822;28;20199;-71
2022/10/15 08:46:53;;;;;;;20.95;17.08;;;19.00;99.90;;;;;;5112126;28;20204;-71
2022/10/15 08:49:30;;;;;;;21.40;17.75;;;19.30;99.90;;;;;;5110484;28;20219;-71
2022/10/15 08:52:06;;;;;;;24.13;18.08;;;19.80;99.90;;;;;;5112907;28;20199;-71
2022/10/15 08:54:35;;;;;;;22.25;17.67;;;21.10;99.90;;;;;;5114125;28;20199;-71
2022/10/15 08:57:15;;;;;;;21.70;17.35;;;23.00;99.90;;;;;;5114110;28;20261;-71
2022/10/15 08:59:51;;;;;;;19.55;17.33;;;24.50;98.80;;;;;;5111568;28;20203;-71
2022/10/15 09:02:23;;;;;;;19.25;16.25;;;26.30;93.90;;;;;;5106884;28;20200;-70
2022/10/15 09:04:57;;;;;;;19.88;16.77;;;27.80;84.30;;;;;;5111795;28;20598;-68
2022/10/15 09:07:33;;;;;;;18.85;16.73;;;29.10;72.70;;;;;;5114338;28;20207;-68
2022/10/15 09:10:06;;;;;;;20.75;17.05;;;28.90;67.60;;;;;;5113779;28;20214;-69
2022/10/15 09:12:45;;;;;;;20.08;16.75;;;27.90;66.50;;;;;;5112581;28;20234;-69
2022/10/15 09:15:15;;;;;;;19.65;16.58;;;28.00;69.40;;;;;;5113968;28;20207;-70
2022/10/15 09:17:44;;;;;;;18.02;16.13;;;28.00;65.60;;;;;;5118181;27;20645;-71
2022/10/15 09:20:17;;;;;;;18.67;15.70;;;27.90;67.60;;;;;;5109359;28;20206;-67
2022/10/15 09:22:49;;;;;;;20.20;16.67;;;28.70;64.80;;;;;;5107262;28;20273;-65
2022/10/15 09:25:18;;;;;;;19.63;16.35;;;28.40;62.20;;;;;;5108329;28;20261;-66
2022/10/15 09:27:47;;;;;;;18.83;15.73;;;27.30;63.10;;;;;;5108875;28;20257;-70
2022/10/15 09:30:34;;;;;;;18.63;15.57;;;26.00;65.20;;;;;;5111874;28;20625;-69
2022/10/15 09:33:07;;;;;;;19.55;16.50;;;24.80;68.30;;;;;;5110180;28;20208;-70
2022/10/15 09:35:40;;;;;;;19.98;15.43;;;23.70;72.30;;;;;;5110504;28;20203;-71
2022/10/15 09:38:27;;;;;;;18.10;15.80;;;22.90;74.20;;;;;;5109561;28;20212;-70
2022/10/15 09:41:04;;;;;;;24.17;16.73;;;22.00;77.00;;;;;;5104488;28;20212;-70
2022/10/15 09:43:35;;;;;;;18.67;16.25;;;21.30;79.80;;;;;;5108259;28;20204;-70
2022/10/15 09:46:05;;;;;;;19.05;16.27;;;20.70;82.70;;;;;;5106099;28;20699;-71
2022/10/15 09:48:37;;;;;;;17.90;15.52;;;20.20;85.20;;;;;;5103135;28;20551;-72
2022/10/15 09:51:12;;;;;;;24.30;16.52;;;19.90;87.40;;;;;;5109682;28;20240;-68
2022/10/15 09:53:51;;;;;;;19.30;16.50;;;19.40;89.20;;;;;;5101427;28;20195;-69
2022/10/15 09:56:19;;;;;;;22.55;17.38;;;19.10;91.20;;;;;;5108288;28;20218;-69
2022/10/15 09:58:51;;;;;;;23.27;17.13;;;18.90;92.40;;;;;;5109248;28;20204;-67
2022/10/15 10:01:20;;;;;;;20.77;16.65;;;18.70;93.40;;;;;;5104398;28;20687;-69
2022/10/15 10:03:52;;;;;;;20.40;16.42;;;18.50;94.70;;;;;;5109249;28;20289;-67
2022/10/15 10:06:19;;;;;;;20.80;17.23;;;18.40;95.60;;;;;;5108229;28;20273;-67
2022/10/15 10:08:52;;;;;;;23.67;17.27;;;18.20;96.50;;;;;;5100679;28;20791;-67
2022/10/15 10:11:21;;;;;;;23.50;16.48;;;18.10;97.60;;;;;;5102898;28;20684;-66
2022/10/15 10:13:54;;;;;;;21.75;16.10;;;18.00;98.90;;;;;;5099674;28;20207;-67
2022/10/15 10:16:21;;;;;;;21.17;17.65;;;18.00;99.90;;;;;;5103291;28;20454;-65
2022/10/15 10:19:04;;;;;;;21.33;18.20;;;18.40;99.90;;;;;;5105170;28;20447;-66
2022/10/15 10:21:32;;;;;;;20.42;17.40;;;18.70;99.90;;;;;;5105399;28;20430;-65
2022/10/15 10:24:29;;;;;;;20.37;16.57;;;19.70;99.90;;;;;;5105551;28;20529;-66
2022/10/15 10:26:56;;;;;;;17.75;14.35;;;21.40;98.80;;;;;;5105597;27;20267;-67
2022/10/15 10:29:24;;;;;;;18.75;15.80;;;23.60;98.60;;;;;;5103944;28;20547;-63
2022/10/15 10:31:51;;;;;;;17.08;14.73;;;25.80;90.50;;;;;;5105443;28;20452;-70
2022/10/15 10:34:25;;;;;;;18.33;13.73;;;28.00;77.60;;;;;;5109920;28;20579;-68
2022/10/15 10:36:53;;;;;;;16.67;13.68;;;30.00;69.30;;;;;;5107873;27;20208;-72
2022/10/15 10:39:27;;;;;;;15.68;12.68;;;31.80;60.80;;;;;;5109549;28;20207;-70
2022/10/15 10:41:55;;;;;;;15.27;12.63;;;33.30;55.70;;;;;;5110987;28;20199;-71
2022/10/15 10:44:27;;;;;;;14.00;12.18;;;34.40;52.00;;;;;;5106332;28;20207;-70
2022/10/15 10:47:19;;;;;;;15.00;12.10;;;35.10;48.30;;;;;;5099840;28;20594;-72
2022/10/15 10:49:47;;;;;;;13.32;11.93;;;35.20;46.50;;;;;;5076335;28;20209;-70
2022/10/15 10:52:26;;;;;;;13.98;12.35;;;34.40;46.20;;;;;;5103059;28;20219;-70
2022/10/15 10:55:00;;;;;;;15.25;13.27;;;32.70;47.30;;;;;;5102026;28;20500;-72
2022/10/15 10:57:39;;;;;;;14.70;13.00;;;30.90;50.10;;;;;;5103652;28;20200;-68
2022/10/15 11:00:07;;;;;;;13.57;11.93;;;29.80;53.40;;;;;;5105325;28;20625;-70
2022/10/15 11:02:40;;;;;;;14.27;12.68;;;30.80;54.50;;;;;;5108079;28;20208;-71
2022/10/15 11:05:07;;;;;;;13.25;11.40;;;32.70;51.40;;;;;;5107708;28;20332;-70
2022/10/15 11:07:41;;;;;;;13.15;11.77;;;34.80;47.10;;;;;;5108508;28;20567;-70
2022/10/15 11:10:18;;;;;;;12.82;11.48;;;36.60;45.10;;;;;;5106448;28;20714;-70
2022/10/15 11:12:59;;;;;;;13.68;10.95;;;37.80;42.00;;;;;;5107625;28;20543;-68
2022/10/15 11:15:36;;;;;;;12.65;11.38;;;38.90;40.20;;;;;;5107986;28;20200;-69
2022/10/15 11:18:22;;;;;;;13.25;11.60;;;39.90;38.60;;;;;;5108667;28;20302;-70
2022/10/15 11:20:57;;;;;;;14.55;10.63;;;40.60;38.10;;;;;;5106480;28;20196;-69
2022/10/15 11:23:35;;;;;;;12.00;10.05;;;41.30;36.40;;;;;;5110365;28;20222;-70
2022/10/15 11:26:19;;;;;;;12.38;9.48;;;42.30;34.90;;;;;;5104010;28;20234;-69
2022/10/15 11:28:58;;;;;;;13.15;10.30;;;43.20;33.70;;;;;;5105469;28;20203;-68
2022/10/15 11:31:29;;;;;;;11.75;10.55;;;43.80;32.60;;;;;;5109708;28;20217;-70
2022/10/15 11:34:09;;;;;;;11.45;10.18;;;44.60;31.30;;;;;;5102490;28;20630;-69
2022/10/15 11:36:52;;;;;;;11.15;9.80;;;43.10;30.80;;;;;;5108267;28;20191;-71
2022/10/15 11:39:32;;;;;;;10.93;9.73;;;40.80;32.80;;;;;;5107509;28;20210;-68
2022/10/15 11:42:08;;;;;;;10.80;9.70;;;38.10;34.50;;;;;;5103074;28;20196;-69
2022/10/15 11:44:55;;;;;;;12.55;9.93;;;35.60;37.70;;;;;;5096826;28;20196;-70
2022/10/15 11:47:33;;;;;;;17.52;10.15;;;34.00;39.60;;;;;;5107318;28;20230;-69
2022/10/15 11:50:17;;;;;;;11.27;9.95;;;32.40;41.80;;;;;;5109649;28;20200;-68
2022/10/15 11:52:58;;;;;;;12.98;10.77;;;31.00;43.70;;;;;;5113697;28;20203;-69
2022/10/15 11:55:32;;;;;;;11.60;10.35;;;29.50;46.50;;;;;;5101956;28;20200;-70
2022/10/15 11:58:06;;;;;;;15.10;10.68;;;28.40;47.80;;;;;;5114325;28;20596;-70
2022/10/15 12:00:37;;;;;;;14.32;10.35;;;27.30;49.30;;;;;;5114042;28;20204;-73
2022/10/15 12:03:11;;;;;;;12.77;10.65;;;26.30;51.60;;;;;;5112524;28;20200;-70
2022/10/15 12:05:43;;;;;;;11.93;10.70;;;25.30;53.30;;;;;;5113949;28;20200;-71
2022/10/15 12:08:11;;;;;;;12.52;11.18;;;24.50;55.20;;;;;;5114182;28;20582;-70
2022/10/15 12:11:07;;;;;;;11.85;10.57;;;23.70;56.90;;;;;;5109719;28;20582;-71
2022/10/15 12:13:40;;;;;;;11.57;10.38;;;23.00;58.70;;;;;;5105996;28;20210;-72
2022/10/15 12:16:16;;;;;;;15.18;10.98;;;22.30;60.30;;;;;;5111577;28;20196;-72
2022/10/15 12:18:49;;;;;;;12.73;11.43;;;21.80;62.00;;;;;;5112525;28;20203;-72
2022/10/15 12:21:36;;;;;;;14.05;11.15;;;21.40;63.50;;;;;;5114236;28;20576;-71
2022/10/15 12:24:09;;;;;;;15.77;11.38;;;21.00;64.90;;;;;;5111351;28;20231;-72
2022/10/15 12:26:36;;;;;;;12.70;11.30;;;20.90;66.00;;;;;;5114306;28;20288;-71
2022/10/15 12:29:06;;;;;;;13.32;11.52;;;20.60;67.10;;;;;;5112838;28;20664;-71
2022/10/15 12:31:48;;;;;;;13.70;10.55;;;20.40;68.30;;;;;;5114241;28;20215;-70
2022/10/15 12:34:28;;;;;;;13.05;11.70;;;20.20;69.30;;;;;;5113937;28;20203;-71
2022/10/15 12:37:03;;;;;;;14.27;10.82;;;20.20;70.60;;;;;;5121894;27;20196;-71
2022/10/15 12:39:31;;;;;;;13.10;11.55;;;20.00;71.40;;;;;;5109318;28;20203;-71
2022/10/15 12:41:58;;;;;;;18.75;11.30;;;19.80;72.00;;;;;;5112435;28;20222;-70
2022/10/15 12:44:29;;;;;;;12.70;10.98;;;19.70;72.80;;;;;;5114204;28;20211;-71